createdAt,value
2018-12-18T00:01:30.778Z,10.00
2018-12-18T00:03:58.423Z,10.10
2018-12-18T00:06:25.955Z,10.00
2018-12-18T00:08:53.590Z,10.30
2018-12-18T00:11:22.138Z,9.90
2018-12-18T00:13:49.774Z,10.00
2018-12-18T00:16:17.376Z,10.30
2018-12-18T00:18:44.906Z,10.20
2018-12-18T00:21:12.512Z,10.20
2018-12-18T00:23:40.028Z,10.00
2018-12-18T00:26:07.591Z,9.80
2018-12-18T00:28:35.201Z,10.10
2018-12-18T00:31:02.734Z,9.90
2018-12-18T00:33:30.390Z,9.80
2018-12-18T00:35:57.924Z,9.90
2018-12-18T00:38:25.447Z,9.90
2018-12-18T00:40:53.032Z,10.00
2018-12-18T00:43:20.573Z,9.90
2018-12-18T00:45:48.230Z,10.10
2018-12-18T00:48:15.824Z,9.90
2018-12-18T00:50:43.373Z,9.90
2018-12-18T00:53:11.058Z,10.00
2018-12-18T00:55:38.660Z,10.10
2018-12-18T00:58:06.242Z,10.20
2018-12-18T01:00:33.906Z,10.20
2018-12-18T01:03:01.460Z,10.20
2018-12-18T01:05:28.985Z,10.00
2018-12-18T01:07:56.578Z,10.10
2018-12-18T01:10:24.164Z,10.00
2018-12-18T01:12:51.713Z,9.80
2018-12-18T01:15:19.449Z,10.10
2018-12-18T01:17:47.171Z,10.00
2018-12-18T01:20:14.670Z,9.90
2018-12-18T01:22:42.196Z,9.90
2018-12-18T01:25:09.858Z,9.70
2018-12-18T01:27:37.414Z,9.80
2018-12-18T01:30:05.181Z,9.90
2018-12-18T01:32:32.715Z,10.00
2018-12-18T01:35:00.280Z,10.00
2018-12-18T01:37:27.799Z,10.20
2018-12-18T01:39:55.404Z,10.20
2018-12-18T01:42:22.935Z,10.10
2018-12-18T01:44:50.632Z,10.20
2018-12-18T01:47:18.149Z,10.10
2018-12-18T01:49:45.719Z,10.30
2018-12-18T01:52:13.283Z,10.30
2018-12-18T01:54:40.818Z,10.30
2018-12-18T01:57:08.391Z,10.30
2018-12-18T01:59:36.027Z,10.30
2018-12-18T02:02:03.711Z,10.30
2018-12-18T02:04:31.234Z,10.40
2018-12-18T02:06:58.799Z,10.70
2018-12-18T02:09:26.340Z,10.40
2018-12-18T02:11:54.842Z,10.20
2018-12-18T02:14:22.385Z,10.20
2018-12-18T02:16:49.948Z,10.40
2018-12-18T02:19:17.659Z,10.40
2018-12-18T02:21:45.186Z,10.40
2018-12-18T02:24:12.781Z,10.40
2018-12-18T02:26:40.306Z,10.20
2018-12-18T02:29:07.967Z,10.00
2018-12-18T02:31:35.481Z,10.20
2018-12-18T02:34:03.100Z,10.10
2018-12-18T02:36:30.646Z,9.90
2018-12-18T02:38:58.218Z,9.90
2018-12-18T02:41:26.001Z,9.90
2018-12-18T02:43:53.547Z,10.00
2018-12-18T02:46:21.098Z,10.20
2018-12-18T02:48:48.720Z,10.00
2018-12-18T02:51:16.287Z,9.90
2018-12-18T02:53:43.869Z,10.00
2018-12-18T02:56:11.417Z,9.90
2018-12-18T02:58:39.003Z,9.70
2018-12-18T03:01:06.647Z,9.70
2018-12-18T03:03:34.201Z,9.60
2018-12-18T03:06:01.744Z,9.90
2018-12-18T03:08:29.715Z,9.70
2018-12-18T03:10:57.286Z,9.80
2018-12-18T03:13:24.896Z,9.80
2018-12-18T03:15:52.445Z,9.70
2018-12-18T03:18:20.031Z,9.60
2018-12-18T03:20:47.549Z,9.50
2018-12-18T03:23:15.112Z,9.50
2018-12-18T03:25:42.704Z,9.70
2018-12-18T03:28:10.213Z,9.70
2018-12-18T03:30:38.528Z,9.50
2018-12-18T03:33:06.047Z,9.50
2018-12-18T03:35:33.888Z,9.10
2018-12-18T03:38:01.417Z,9.30
2018-12-18T03:40:29.091Z,9.30
2018-12-18T03:42:56.652Z,9.30
2018-12-18T03:45:24.173Z,9.40
2018-12-18T03:47:51.721Z,9.20
2018-12-18T03:50:19.341Z,9.10
2018-12-18T03:52:46.923Z,9.10
2018-12-18T03:55:14.474Z,9.20
2018-12-18T03:57:42.063Z,8.90
2018-12-18T04:00:11.531Z,8.90
2018-12-18T04:02:39.159Z,9.10
2018-12-18T04:05:06.817Z,9.00
2018-12-18T04:07:34.370Z,9.00
2018-12-18T04:10:01.936Z,9.10
2018-12-18T04:12:29.516Z,9.20
2018-12-18T04:14:57.022Z,9.10
2018-12-18T04:17:24.599Z,9.20
2018-12-18T04:19:52.151Z,8.90
2018-12-18T04:22:19.855Z,8.80
2018-12-18T04:24:47.494Z,8.90
2018-12-18T04:27:15.157Z,8.90
2018-12-18T04:29:42.694Z,9.10
2018-12-18T04:32:10.222Z,8.80
2018-12-18T04:34:42.957Z,8.90
2018-12-18T04:37:07.276Z,8.70
2018-12-18T04:39:34.820Z,8.80
2018-12-18T04:42:03.304Z,8.80
2018-12-18T04:44:30.881Z,8.80
2018-12-18T04:46:58.442Z,8.90
2018-12-18T04:49:26.051Z,8.80
2018-12-18T04:51:53.820Z,8.50
2018-12-18T04:54:21.392Z,8.40
2018-12-18T04:56:48.919Z,8.60
2018-12-18T04:59:16.471Z,8.70
2018-12-18T05:01:45.087Z,8.60
2018-12-18T05:04:12.618Z,8.80
2018-12-18T05:06:40.141Z,8.60
2018-12-18T05:09:07.744Z,8.70
2018-12-18T05:11:35.411Z,8.70
2018-12-18T05:14:02.950Z,8.70
2018-12-18T05:16:30.497Z,8.70
2018-12-18T05:18:58.014Z,8.50
2018-12-18T05:21:25.568Z,8.80
2018-12-18T05:23:53.111Z,8.80
2018-12-18T05:26:20.678Z,8.40
2018-12-18T05:28:48.247Z,8.60
2018-12-18T05:31:16.030Z,8.60
2018-12-18T05:33:43.572Z,8.80
2018-12-18T05:36:11.109Z,8.70
2018-12-18T05:38:38.635Z,8.60
2018-12-18T05:41:06.185Z,8.50
2018-12-18T05:43:33.718Z,8.50
2018-12-18T05:46:01.314Z,8.50
2018-12-18T05:48:29.399Z,8.70
2018-12-18T05:50:56.995Z,8.50
2018-12-18T05:53:24.531Z,8.60
2018-12-18T05:55:52.204Z,8.60
2018-12-18T05:58:19.892Z,8.50
2018-12-18T06:00:47.439Z,8.50
2018-12-18T06:03:14.990Z,8.30
2018-12-18T06:05:42.607Z,8.50
2018-12-18T06:08:10.125Z,8.50
2018-12-18T06:10:37.696Z,8.30
2018-12-18T06:13:05.236Z,8.60
2018-12-18T06:15:32.809Z,8.70
2018-12-18T06:18:00.350Z,8.60
2018-12-18T06:20:29.117Z,8.60
2018-12-18T06:22:56.657Z,8.50
2018-12-18T06:25:24.226Z,8.40
2018-12-18T06:27:51.797Z,8.30
2018-12-18T06:30:19.347Z,8.50
2018-12-18T06:32:46.936Z,8.40
2018-12-18T06:35:14.473Z,8.30
2018-12-18T06:37:42.118Z,8.10
2018-12-18T06:40:09.622Z,8.40
2018-12-18T06:42:37.213Z,8.30
2018-12-18T06:45:06.470Z,8.50
2018-12-18T06:47:33.996Z,8.20
2018-12-18T06:50:01.575Z,8.30
2018-12-18T06:52:29.242Z,8.40
2018-12-18T06:54:56.760Z,8.50
2018-12-18T06:57:24.290Z,8.40
2018-12-18T06:59:51.850Z,8.30
2018-12-18T07:02:19.424Z,8.50
2018-12-18T07:04:47.270Z,8.40
2018-12-18T07:07:14.810Z,8.10
2018-12-18T07:09:42.365Z,8.30
2018-12-18T07:12:09.917Z,8.20
2018-12-18T07:14:37.454Z,8.00
2018-12-18T07:17:05.297Z,8.30
2018-12-18T07:19:32.960Z,8.40
2018-12-18T07:22:00.487Z,8.40
2018-12-18T07:24:28.039Z,8.50
2018-12-18T07:26:55.562Z,8.30
2018-12-18T07:29:23.159Z,8.10
2018-12-18T07:31:50.851Z,8.50
2018-12-18T07:34:18.453Z,8.50
2018-12-18T07:36:46.025Z,8.50
2018-12-18T07:39:13.559Z,8.10
2018-12-18T07:41:41.095Z,8.40
2018-12-18T07:44:08.641Z,8.60
2018-12-18T07:46:36.164Z,8.40
2018-12-18T07:49:03.708Z,8.20
2018-12-18T07:51:31.404Z,8.30
2018-12-18T07:53:58.930Z,8.20
2018-12-18T07:56:26.574Z,8.60
2018-12-18T07:58:54.183Z,8.70
2018-12-18T08:01:22.172Z,8.40
2018-12-18T08:03:49.738Z,8.70
2018-12-18T08:06:17.253Z,8.30
2018-12-18T08:08:44.787Z,8.70
2018-12-18T08:11:13.056Z,8.30
2018-12-18T08:13:40.618Z,8.50
2018-12-18T08:16:08.158Z,8.40
2018-12-18T08:18:36.055Z,8.40
2018-12-18T08:21:03.573Z,8.30
2018-12-18T08:23:31.144Z,8.60
2018-12-18T08:25:58.798Z,8.70
2018-12-18T08:28:26.303Z,8.60
2018-12-18T08:30:54.275Z,8.70
2018-12-18T08:33:21.781Z,8.60
2018-12-18T08:35:49.448Z,8.70
2018-12-18T08:38:17.011Z,8.50
2018-12-18T08:40:44.601Z,8.60
2018-12-18T08:43:12.121Z,8.60
2018-12-18T08:45:39.709Z,8.70
2018-12-18T08:48:07.227Z,8.70
2018-12-18T08:50:34.763Z,8.80
2018-12-18T08:53:02.289Z,8.80
2018-12-18T08:55:29.821Z,8.60
2018-12-18T08:57:57.385Z,8.90
2018-12-18T09:00:25.059Z,8.70
2018-12-18T09:02:52.654Z,8.70
2018-12-18T09:05:20.212Z,9.00
2018-12-18T09:07:47.790Z,9.00
2018-12-18T09:10:15.452Z,8.90
2018-12-18T09:12:43.022Z,9.00
2018-12-18T09:15:16.203Z,8.70
2018-12-18T09:17:45.710Z,9.00
2018-12-18T09:20:13.671Z,9.00
2018-12-18T09:22:41.264Z,9.00
2018-12-18T09:25:08.785Z,9.00
2018-12-18T09:27:36.299Z,9.10
2018-12-18T09:30:06.806Z,9.20
2018-12-18T09:32:34.440Z,9.10
2018-12-18T09:35:01.987Z,9.10
2018-12-18T09:37:29.542Z,9.20
2018-12-18T09:39:57.061Z,9.30
2018-12-18T09:42:30.396Z,9.40
2018-12-18T09:44:58.072Z,9.20
2018-12-18T09:47:26.311Z,9.50
2018-12-18T09:49:53.972Z,9.50
2018-12-18T09:52:21.625Z,9.40
2018-12-18T09:54:49.171Z,9.30
2018-12-18T09:57:22.485Z,9.40
2018-12-18T09:59:50.114Z,9.50
2018-12-18T10:02:17.751Z,9.70
2018-12-18T10:04:45.305Z,9.70
2018-12-18T10:07:12.831Z,9.70
2018-12-18T10:09:40.398Z,9.80
2018-12-18T10:12:07.951Z,9.50
2018-12-18T10:14:36.436Z,9.70
2018-12-18T10:17:03.970Z,9.90
2018-12-18T10:19:31.514Z,9.70
2018-12-18T10:21:59.046Z,9.90
2018-12-18T10:24:26.631Z,9.80
2018-12-18T10:26:54.174Z,9.80
2018-12-18T10:29:21.737Z,10.10
2018-12-18T10:31:49.316Z,10.10
2018-12-18T10:34:16.955Z,9.90
2018-12-18T10:36:44.521Z,10.20
2018-12-18T10:39:12.083Z,10.00
2018-12-18T10:41:39.649Z,10.20
2018-12-18T10:44:07.216Z,10.00
2018-12-18T10:46:34.863Z,10.10
2018-12-18T10:49:03.386Z,10.20
2018-12-18T10:51:30.914Z,10.10
2018-12-18T10:53:58.518Z,10.40
2018-12-18T10:56:26.162Z,10.20
2018-12-18T10:58:53.699Z,10.30
2018-12-18T11:04:30.362Z,10.30
2018-12-18T11:06:57.992Z,10.30
2018-12-18T11:09:25.593Z,10.00
2018-12-18T11:11:53.210Z,10.10
2018-12-18T11:14:20.818Z,10.20
2018-12-18T11:16:48.365Z,10.30
2018-12-18T11:19:16.011Z,10.40
2018-12-18T11:21:43.664Z,10.50
2018-12-18T11:24:11.223Z,10.60
2018-12-18T11:26:38.750Z,10.30
2018-12-18T11:29:06.306Z,10.60
2018-12-18T11:31:33.887Z,10.50
2018-12-18T11:34:01.429Z,10.50
2018-12-18T11:36:29.098Z,10.70
2018-12-18T11:38:56.638Z,10.50
2018-12-18T11:41:24.188Z,10.50
2018-12-18T11:43:51.878Z,10.40
2018-12-18T11:46:19.373Z,10.60
2018-12-18T11:48:46.973Z,10.30
2018-12-18T11:51:14.640Z,10.30
2018-12-18T11:53:42.177Z,10.50
2018-12-18T11:56:09.821Z,10.70
2018-12-18T11:58:38.463Z,10.30
2018-12-18T12:01:06.159Z,10.50
2018-12-18T12:03:33.705Z,10.30
2018-12-18T12:06:01.235Z,10.50
2018-12-18T12:08:28.777Z,10.30
2018-12-18T12:10:56.338Z,10.40
2018-12-18T12:13:24.050Z,10.60
2018-12-18T12:15:51.718Z,10.60
2018-12-18T12:18:19.252Z,10.70
2018-12-18T12:20:46.801Z,10.50
2018-12-18T12:23:14.384Z,10.70
2018-12-18T12:25:42.101Z,10.80
2018-12-18T12:28:09.630Z,10.40
2018-12-18T12:30:37.210Z,10.70
2018-12-18T12:33:04.767Z,10.40
2018-12-18T12:35:33.054Z,10.50
2018-12-18T12:38:00.623Z,10.60
2018-12-18T12:40:29.676Z,10.90
2018-12-18T12:42:57.584Z,10.40
2018-12-18T12:45:25.165Z,10.80
2018-12-18T12:47:52.833Z,10.50
2018-12-18T12:50:20.484Z,10.80
2018-12-18T12:52:47.999Z,10.80
2018-12-18T12:55:15.562Z,10.80
2018-12-18T12:57:43.088Z,10.70
2018-12-18T13:00:10.966Z,10.70
2018-12-18T13:02:38.719Z,10.80
2018-12-18T13:05:06.395Z,10.80
2018-12-18T13:07:33.990Z,10.80
2018-12-18T13:10:01.527Z,10.90
2018-12-18T13:12:29.954Z,10.90
2018-12-18T13:14:57.511Z,10.80
2018-12-18T13:17:25.025Z,10.90
2018-12-18T13:19:52.578Z,10.80
2018-12-18T13:22:20.158Z,10.80
2018-12-18T13:24:47.730Z,10.90
2018-12-18T13:27:15.286Z,10.90
2018-12-18T13:29:43.140Z,11.10
2018-12-18T13:32:10.870Z,10.90
2018-12-18T13:34:38.441Z,11.00
2018-12-18T13:37:06.037Z,11.20
2018-12-18T13:39:33.629Z,10.80
2018-12-18T13:42:01.251Z,10.90
2018-12-18T13:44:28.795Z,10.80
2018-12-18T13:46:56.398Z,11.00
2018-12-18T13:49:24.107Z,11.00
2018-12-18T13:51:51.645Z,10.70
2018-12-18T13:54:19.187Z,10.70
2018-12-18T13:56:46.771Z,10.80
2018-12-18T13:59:14.306Z,10.80
2018-12-18T14:01:41.925Z,10.80
2018-12-18T14:04:09.461Z,10.90
2018-12-18T14:06:37.064Z,11.10
2018-12-18T14:09:06.703Z,11.00
2018-12-18T14:11:34.276Z,10.90
2018-12-18T14:14:01.982Z,10.60
2018-12-18T14:16:29.643Z,10.60
2018-12-18T14:18:57.161Z,10.70
2018-12-18T14:21:24.717Z,10.60
2018-12-18T14:23:52.286Z,10.90
2018-12-18T14:26:20.049Z,10.80
2018-12-18T14:28:47.583Z,10.90
2018-12-18T14:31:15.231Z,10.70
2018-12-18T14:33:42.836Z,10.80
2018-12-18T14:36:10.463Z,10.60
2018-12-18T14:38:38.025Z,10.80
2018-12-18T14:41:05.568Z,10.70
2018-12-18T14:43:33.089Z,10.60
2018-12-18T14:46:00.638Z,10.40
2018-12-18T14:48:28.348Z,10.50
2018-12-18T14:50:55.893Z,10.30
2018-12-18T14:53:23.517Z,10.50
2018-12-18T14:55:51.062Z,10.20
2018-12-18T14:58:18.597Z,10.20
2018-12-18T15:00:46.147Z,10.00
2018-12-18T15:03:13.687Z,10.10
2018-12-18T15:05:41.446Z,9.90
2018-12-18T15:08:08.938Z,10.10
2018-12-18T15:10:36.492Z,9.90
2018-12-18T15:13:04.024Z,10.00
2018-12-18T15:15:31.647Z,10.10
2018-12-18T15:17:59.170Z,9.90
2018-12-18T15:20:26.731Z,9.90
2018-12-18T15:22:54.349Z,9.80
2018-12-18T15:25:21.877Z,9.90
2018-12-18T15:27:49.434Z,10.00
2018-12-18T15:30:17.089Z,9.90
2018-12-18T15:32:44.856Z,9.60
2018-12-18T15:35:12.706Z,9.90
2018-12-18T15:37:40.444Z,9.90
2018-12-18T15:40:07.983Z,9.80
2018-12-18T15:42:35.577Z,9.60
2018-12-18T15:45:03.109Z,9.80
2018-12-18T15:47:30.757Z,9.60
2018-12-18T15:49:58.326Z,9.60
2018-12-18T15:52:25.924Z,9.60
2018-12-18T15:54:53.427Z,9.90
2018-12-18T15:57:20.976Z,9.60
2018-12-18T15:59:48.532Z,9.70
2018-12-18T16:02:16.071Z,9.60
2018-12-18T16:04:43.606Z,9.50
2018-12-18T16:07:16.145Z,9.60
2018-12-18T16:09:40.780Z,9.60
2018-12-18T16:12:08.331Z,9.60
2018-12-18T16:14:35.961Z,9.50
2018-12-18T16:17:03.514Z,9.60
2018-12-18T16:19:31.383Z,9.50
2018-12-18T16:21:59.375Z,9.50
2018-12-18T16:24:27.021Z,9.50
2018-12-18T16:26:54.559Z,9.70
2018-12-18T16:29:22.140Z,9.30
2018-12-18T16:31:49.704Z,9.30
2018-12-18T16:34:17.483Z,9.30
2018-12-18T16:36:45.014Z,9.40
2018-12-18T16:39:12.623Z,9.30
2018-12-18T16:41:40.246Z,9.30
2018-12-18T16:44:07.756Z,9.20
2018-12-18T16:46:35.383Z,9.30
2018-12-18T16:49:02.937Z,9.00
2018-12-18T16:51:30.502Z,9.20
2018-12-18T16:53:58.081Z,9.20
2018-12-18T16:56:25.701Z,9.10
2018-12-18T16:58:53.362Z,9.30
2018-12-18T17:01:20.972Z,9.00
2018-12-18T17:03:48.543Z,9.00
2018-12-18T17:06:16.092Z,9.00
2018-12-18T17:08:43.648Z,8.90
2018-12-18T17:11:11.184Z,9.20
2018-12-18T17:13:38.789Z,9.00
2018-12-18T17:16:06.357Z,9.20
2018-12-18T17:18:34.023Z,9.00
2018-12-18T17:21:01.650Z,9.20
2018-12-18T17:23:29.206Z,9.10
2018-12-18T17:25:56.818Z,9.00
2018-12-18T17:28:24.382Z,9.00
2018-12-18T17:30:51.916Z,9.20
2018-12-18T17:33:20.260Z,9.00
2018-12-18T17:35:47.888Z,9.00
2018-12-18T17:38:16.506Z,9.00
2018-12-18T17:40:44.462Z,9.30
2018-12-18T17:43:12.042Z,9.30
2018-12-18T17:45:39.723Z,8.90
2018-12-18T17:48:07.351Z,9.00
2018-12-18T17:50:35.908Z,8.90
2018-12-18T17:53:03.506Z,9.00
2018-12-18T17:55:31.068Z,9.00
2018-12-18T17:57:58.633Z,9.00
2018-12-18T18:00:26.201Z,9.00
2018-12-18T18:02:53.762Z,8.60
2018-12-18T18:05:21.275Z,8.90
2018-12-18T18:07:48.845Z,9.00
2018-12-18T18:10:16.486Z,9.00
2018-12-18T18:12:44.055Z,9.00
2018-12-18T18:15:12.265Z,8.90
2018-12-18T18:17:39.870Z,8.90
2018-12-18T18:20:07.485Z,8.70
2018-12-18T18:22:35.632Z,9.00
2018-12-18T18:25:03.462Z,8.90
2018-12-18T18:27:31.067Z,9.00
2018-12-18T18:29:58.617Z,8.90
2018-12-18T18:32:26.201Z,9.00
2018-12-18T18:34:53.837Z,9.00
2018-12-18T18:37:21.404Z,8.90
2018-12-18T18:39:48.976Z,9.00
2018-12-18T18:42:16.598Z,8.60
2018-12-18T18:44:44.160Z,8.90
2018-12-18T18:47:11.772Z,8.90
2018-12-18T18:49:39.335Z,8.90
2018-12-18T18:52:06.862Z,8.90
2018-12-18T18:54:34.459Z,9.00
2018-12-18T18:57:02.022Z,8.90
2018-12-18T18:59:29.590Z,8.90
2018-12-18T19:01:57.116Z,8.80
2018-12-18T19:04:24.675Z,9.10
2018-12-18T19:06:52.290Z,8.90
2018-12-18T19:09:20.361Z,9.00
2018-12-18T19:11:48.024Z,8.90
2018-12-18T19:14:15.571Z,9.00
2018-12-18T19:16:43.152Z,8.80
2018-12-18T19:19:10.819Z,9.00
2018-12-18T19:21:38.408Z,8.90
2018-12-18T19:24:06.217Z,8.90
2018-12-18T19:26:33.741Z,8.80
2018-12-18T19:29:01.315Z,8.80
2018-12-18T19:31:28.941Z,9.00
2018-12-18T19:33:56.516Z,8.90
2018-12-18T19:36:24.258Z,8.90
2018-12-18T19:38:51.839Z,9.00
2018-12-18T19:41:19.385Z,9.10
2018-12-18T19:43:46.934Z,8.90
2018-12-18T19:46:14.469Z,9.00
2018-12-18T19:48:42.123Z,9.00
2018-12-18T19:51:09.675Z,9.20
2018-12-18T19:53:37.250Z,9.20
2018-12-18T19:56:04.801Z,9.20
2018-12-18T19:58:32.488Z,9.00
2018-12-18T20:01:00.037Z,9.20
2018-12-18T20:03:27.583Z,9.20
2018-12-18T20:05:55.138Z,8.90
2018-12-18T20:08:22.782Z,8.90
2018-12-18T20:10:50.362Z,9.20
2018-12-18T20:13:17.961Z,9.10
2018-12-18T20:15:45.530Z,9.10
2018-12-18T20:18:13.163Z,8.90
2018-12-18T20:20:40.712Z,9.00
2018-12-18T20:23:08.271Z,8.90
2018-12-18T20:25:35.878Z,8.80
2018-12-18T20:28:03.403Z,9.00
2018-12-18T20:30:31.637Z,9.00
2018-12-18T20:32:59.239Z,9.00
2018-12-18T20:35:27.671Z,9.00
2018-12-18T20:37:55.185Z,8.80
2018-12-18T20:40:22.924Z,9.10
2018-12-18T20:42:50.483Z,8.90
2018-12-18T20:45:18.060Z,9.00
2018-12-18T20:47:45.620Z,9.00
2018-12-18T20:50:13.282Z,9.00
2018-12-18T20:52:40.939Z,9.00
2018-12-18T20:55:08.550Z,8.90
2018-12-18T20:57:36.181Z,8.90
2018-12-18T21:00:05.945Z,9.00
2018-12-18T21:02:33.714Z,8.90
2018-12-18T21:05:01.759Z,9.00
2018-12-18T21:07:29.319Z,8.90
2018-12-18T21:09:57.054Z,9.00
2018-12-18T21:12:24.563Z,8.70
2018-12-18T21:14:52.118Z,9.00
2018-12-18T21:17:19.654Z,8.90
2018-12-18T21:19:47.197Z,8.80
2018-12-18T21:22:14.732Z,9.00
2018-12-18T21:24:42.392Z,9.10
2018-12-18T21:27:10.029Z,8.90
2018-12-18T21:29:37.582Z,8.90
2018-12-18T21:32:05.183Z,8.90
2018-12-18T21:34:32.735Z,8.50
2018-12-18T21:37:00.282Z,8.60
2018-12-18T21:39:27.832Z,8.90
2018-12-18T21:41:55.346Z,8.90
2018-12-18T21:44:22.928Z,8.60
2018-12-18T21:46:50.487Z,9.00
2018-12-18T21:49:19.208Z,8.90
2018-12-18T21:51:47.023Z,8.70
2018-12-18T21:54:14.542Z,8.90
2018-12-18T21:56:42.198Z,8.60
2018-12-18T21:59:09.775Z,8.90
2018-12-18T22:01:38.276Z,8.70
2018-12-18T22:04:05.875Z,8.70
2018-12-18T22:06:33.445Z,8.80
2018-12-18T22:09:01.011Z,8.90
2018-12-18T22:11:28.543Z,9.20
2018-12-18T22:13:56.121Z,9.20
2018-12-18T22:16:23.657Z,9.10
2018-12-18T22:18:51.431Z,9.20
2018-12-18T22:21:19.449Z,9.10
2018-12-18T22:23:46.961Z,9.10
2018-12-18T22:26:14.679Z,9.20
2018-12-18T22:28:42.289Z,9.30
2018-12-18T22:31:09.832Z,9.30
2018-12-18T22:33:37.351Z,9.20
2018-12-18T22:36:05.147Z,9.20
2018-12-18T22:38:33.477Z,9.20
2018-12-18T22:41:01.031Z,9.40
2018-12-18T22:43:28.579Z,9.20
2018-12-18T22:45:56.106Z,9.10
2018-12-18T22:48:23.724Z,9.30
2018-12-18T22:50:51.291Z,9.30
2018-12-18T22:53:18.820Z,9.20
2018-12-18T22:55:46.507Z,9.20
2018-12-18T22:58:14.025Z,9.20
2018-12-18T23:00:47.409Z,9.20
2018-12-18T23:03:15.026Z,9.20
2018-12-18T23:05:42.549Z,9.20
2018-12-18T23:08:12.741Z,9.50
2018-12-18T23:10:40.508Z,9.30
2018-12-18T23:13:08.089Z,9.20
2018-12-18T23:15:35.753Z,9.50
2018-12-18T23:18:03.412Z,9.30
2018-12-18T23:20:30.969Z,9.50
2018-12-18T23:22:58.512Z,9.20
2018-12-18T23:25:26.042Z,9.30
2018-12-18T23:27:53.714Z,9.50
2018-12-18T23:30:21.437Z,9.50
2018-12-18T23:32:49.065Z,9.50
2018-12-18T23:35:16.612Z,9.30
2018-12-18T23:37:44.230Z,9.60
2018-12-18T23:40:11.816Z,9.20
2018-12-18T23:42:39.455Z,9.50
2018-12-18T23:45:07.055Z,9.50
2018-12-18T23:47:34.613Z,9.60
2018-12-18T23:50:02.455Z,9.50
2018-12-18T23:52:30.159Z,9.60
2018-12-18T23:54:57.682Z,9.50
2018-12-18T23:57:25.266Z,9.60
2018-12-18T23:59:53.725Z,9.60
